Flight Track Log - Related Links

Times and Time Zones

All times are in EDT time to prevent confusion due to time zone crossing. See the N53NW flight status page for this flight to view local times or setup timezone preferences in your user account.

Time Position Orientation Groundspeed Altitude Reporting Facility
EDT Latitude Longitude Course Direction KTS MPH feet Rate Location/Type
Wed 01:24:39 PM 42.1500 -87.9167 334° Northwest 190 219 2,000  Level Chicago TRACON
Wed 01:25:34 PM 42.2000 -87.9500 334° Northwest 228 262 3,700 1,235 Climbing Chicago TRACON
Wed 01:26:21 PM 42.2450 -87.9653 346° North 219 252 4,100 1,596 Climbing Chicago Center
Wed 01:27:23 PM 42.3039 -87.9928 341° North 223 257 6,600 2,256 Climbing Chicago Center
Wed 01:28:26 PM 42.3617 -88.0175 342° North 230 265 8,800 1,632 Climbing Chicago Center
Wed 01:29:28 PM 42.4392 -88.0397 348° North 243 280 10,000 1,113 Climbing Chicago Center
Wed 01:30:30 PM 42.5081 -88.0586 349° North 251 289 11,100 968 Climbing Chicago Center
Wed 01:31:32 PM 42.5822 -88.0706 353° North 283 326 12,000 435 Climbing Chicago Center
Wed 01:32:34 PM 42.6656 -88.0194 24° Northeast 325 374 12,000 -290 Level Chicago Center
Wed 01:33:36 PM 42.7383 -87.9483 36° Northeast 340 391 11,400 -484 Descending Chicago Center
Wed 01:34:38 PM 42.7914 -87.8133 62° Northeast 348 400 11,000 -194 Descending Chicago Center
Wed 01:35:40 PM 42.7919 -87.6786 90° East 357 411 11,000  Level Chicago Center
Wed 01:36:42 PM 42.7889 -87.5461 92° East 353 406 11,000  Level Chicago Center
Wed 01:37:44 PM 42.7847 -87.4133 92° East 352 405 11,000  Level Chicago Center
Wed 01:38:46 PM 42.7811 -87.2650 92° East 351 404 11,000  Level Chicago Center
Wed 01:39:48 PM 42.7767 -87.1350 93° East 347 399 11,000  Level Chicago Center
Wed 01:40:51 PM 42.7725 -87.0039 92° East 347 399 11,000  Level Chicago Center
Wed 01:41:53 PM 42.7692 -86.8717 92° East 350 403 11,000 -581 Level Chicago Center
Wed 01:42:55 PM 42.7650 -86.7400 92° East 350 403 9,800 -1,548 Descending Chicago Center
Wed 01:43:57 PM 42.7608 -86.6161 93° East 334 384 7,800 -2,129 Descending Chicago Center
Wed 01:44:59 PM 42.7494 -86.4797 96° East 308 354 5,400 -2,129 Descending Chicago Center
Wed 01:46:01 PM 42.7447 -86.3775 94° East 285 328 3,400 -1,403 Descending Chicago Center
Wed 01:47:03 PM 42.7397 -86.2842 94° East 268 308 2,500 -532 Descending Chicago Center
Wed 01:48:05 PM 42.7347 -86.2222 96° East 202 232 2,300 -242 Descending Chicago Center
Wed 01:49:07 PM 42.7300 -86.1686 97° East 168 193 2,000 -145 Descending Chicago Center
Wed 01:50:09 PM 42.7219 -86.1047 100° East 151 174 2,000 -48 Level Chicago Center
Wed 01:51:11 PM 42.7169 -86.0492 97° East 148 170 1,900 -290 Descending Chicago Center
Wed 01:52:13 PM 42.7442 -86.0483 North 137 158 1,400 -532 Descending Chicago Center
Wed 01:53:15 PM 42.7444 -86.0886 271° West 119 137 800 -581 Descending Chicago Center

Login

Don't have an account? Register now (free) for customized features, flight alerts, and more!